This is the latest recevied weather packets stored in our database for station/object DL6DJ-15. If no packets are shown the sender has not sent any weather packets the latest 10 day(s).
| Time | Temp. | Humidity | Pressure | Rain* | Wind** | Luminosity | Snow |
|---|---|---|---|---|---|---|---|
| 1777967151 | 31.67° C | 25% | 1009.4 hPa | - | - | - | - |
| 1777966851 | 31.11° C | 25% | 1009.5 hPa | - | - | - | - |
| 1777966550 | 31.67° C | 24% | 1009.4 hPa | - | - | - | - |
| 1777966250 | 31.67° C | 24% | 1009.6 hPa | - | - | - | - |
| 1777965950 | 31.67° C | 24% | 1009.6 hPa | - | - | - | - |
| 1777965649 | 31.11° C | 26% | 1009.6 hPa | - | - | - | - |
| 1777965349 | 31.67° C | 24% | 1009.7 hPa | - | - | - | - |
| 1777965049 | 31.11° C | 23% | 1009.7 hPa | - | - | - | - |
| 1777964748 | 30° C | 26% | 1009.7 hPa | - | - | - | - |
| 1777964447 | 31.11° C | 26% | 1009.7 hPa | - | - | - | - |
| 1777964147 | 31.11° C | 25% | 1009.7 hPa | - | - | - | - |
| 1777963847 | 30° C | 26% | 1009.8 hPa | - | - | - | - |
| 1777963547 | 30° C | 26% | 1009.8 hPa | - | - | - | - |
| 1777963246 | 30.56° C | 27% | 1009.9 hPa | - | - | - | - |
| 1777962945 | 30.56° C | 26% | 1009.8 hPa | - | - | - | - |
| 1777962646 | 30° C | 27% | 1009.9 hPa | - | - | - | - |
| 1777962345 | 29.44° C | 28% | 1009.9 hPa | - | - | - | - |
| 1777962045 | 28.33° C | 30% | 1009.9 hPa | - | - | - | - |
| 1777961744 | 27.78° C | 30% | 1009.9 hPa | - | - | - | - |
| 1777961443 | 26.11° C | 32% | 1010.1 hPa | - | - | - | - |
| 1777961144 | 25.56° C | 34% | 1010 hPa | - | - | - | - |
| 1777960843 | 23.89° C | 36% | 1010 hPa | - | - | - | - |
| 1777960543 | 23.89° C | 38% | 1010 hPa | - | - | - | - |
| 1777960242 | 25° C | 35% | 1010 hPa | - | - | - | - |
| 1777959942 | 24.44° C | 34% | 1009.9 hPa | - | - | - | - |
* Rain since midnight (hover to see other rain measurements)
** Current wind speed in m/s (hover to see current wind gust speed)